Twin Springs, Nevada Weather observations

Data are for observation ending at time listed.
 Day   Time    Ave.   Ave.  Ave.  Vector   Max.   Stn.    Total    Solar   Ave.  
  of    of     Air    Rel.  Wind   Wind    Wind   Baro.  Precip.   Rad.    Soil  
Year   Day     Temp.  Hum.  Speed  Dir.    Gust   Pres.                    Temp. 
2014   (PST)    F      %     mph   deg.    mph     mb.     in.     W/m2     F   
------------------------------------------------------------------------------
 202    3:00   64.2    31    2.3   344      5.0    845     0.00       0    81.4
 202    4:00  99999.0   99999  99999.0   99999    99999.0    99999    99999.00   99999    99999.0
 202    5:00   63.3    39    3.9     7      7.9    846     0.00       4    79.2
 202    6:00   62.6    40    1.9   356      5.5    846     0.00      88    78.3
 202    7:00   67.4    39    4.2   332      7.4    847     0.00     321    77.4
 202    8:00   75.7    30    3.0   284      6.0    847     0.00     532    77.1
 202    9:00   80.9    24    5.3   228     20.2    847     0.00     696    77.7
 202   10:00   81.9    22   10.6   189     22.4    847     0.00     784    79.2
 202   11:00   84.1    20    9.1   202     19.9    846     0.00     985    81.5
 202   12:00   85.7    18    9.6   197     22.0    846     0.00     994    84.3
 202   13:00   88.3    12    9.7   175     32.8    846     0.00    1038    87.3
 202   14:00   89.7     9   10.4   184     21.9    845     0.00     979    89.7
 202   15:00   89.6    10   11.2   192     23.8    845     0.00     848    90.2
 202   16:00   89.8     9   12.4   178     30.0    845     0.00     679    89.7
 202   17:00   88.1     9   11.1   180     22.4    845     0.00     366    89.7
 202   18:00   87.0    10   11.2   177     19.6    845     0.00     223    90.1
 202   19:00   85.0    11   11.2   169     18.5    845     0.00      69    89.8
 202   20:00   81.0    14    8.4   183     16.1    845     0.00       1    88.9
 202   21:00   78.5    16    7.5   174     14.9    846     0.00       0    87.8
 202   22:00   77.1    18    5.6   194     11.5    846     0.00       0    86.5
 202   23:00   76.9    18    6.3   198     13.0    847     0.00       0    85.4
 203    0:00   75.6    18    7.2   184     12.6    847     0.00       0    84.3
 203    1:00   69.3    23    5.0   140     10.4    847     0.00       0    83.3
 203    2:00   64.6    27    2.8   333      7.7    847     0.00       0    82.3

Return to Twin Springs, Nevada graphs page.


Western Regional Climate Center,wrcc@dri.edu